sensor_id;sensor_type;location;lat;lon;timestamp;P1;durP1;ratioP1;P2;durP2;ratioP2
19213;SDS011;9741;51.020;5.304;2023-08-17T00:02:19;0.98;;;0.80;;
19213;SDS011;9741;51.020;5.304;2023-08-17T00:04:51;1.30;;;0.60;;
19213;SDS011;9741;51.020;5.304;2023-08-17T00:07:31;3.53;;;0.60;;
19213;SDS011;9741;51.020;5.304;2023-08-17T00:10:01;0.35;;;0.35;;
19213;SDS011;9741;51.020;5.304;2023-08-17T00:12:38;0.70;;;0.47;;
19213;SDS011;9741;51.020;5.304;2023-08-17T00:15:06;0.45;;;0.45;;
19213;SDS011;9741;51.020;5.304;2023-08-17T00:17:34;0.60;;;0.60;;
19213;SDS011;9741;51.020;5.304;2023-08-17T00:20:03;0.70;;;0.60;;
19213;SDS011;9741;51.020;5.304;2023-08-17T00:22:35;0.40;;;0.40;;
19213;SDS011;9741;51.020;5.304;2023-08-17T00:25:04;0.40;;;0.40;;
19213;SDS011;9741;51.020;5.304;2023-08-17T00:27:32;0.60;;;0.60;;
19213;SDS011;9741;51.020;5.304;2023-08-17T00:30:05;0.63;;;0.63;;
19213;SDS011;9741;51.020;5.304;2023-08-17T00:32:34;0.80;;;0.80;;
19213;SDS011;9741;51.020;5.304;2023-08-17T00:35:06;0.90;;;0.60;;
19213;SDS011;9741;51.020;5.304;2023-08-17T00:37:41;0.70;;;0.68;;
19213;SDS011;9741;51.020;5.304;2023-08-17T00:40:23;0.40;;;0.40;;
19213;SDS011;9741;51.020;5.304;2023-08-17T00:42:53;0.60;;;0.60;;
19213;SDS011;9741;51.020;5.304;2023-08-17T00:45:23;1.13;;;0.77;;
19213;SDS011;9741;51.020;5.304;2023-08-17T00:47:54;0.80;;;0.80;;
19213;SDS011;9741;51.020;5.304;2023-08-17T00:50:23;3.47;;;0.75;;
19213;SDS011;9741;51.020;5.304;2023-08-17T00:52:53;0.60;;;0.60;;
19213;SDS011;9741;51.020;5.304;2023-08-17T00:55:22;3.90;;;0.90;;
19213;SDS011;9741;51.020;5.304;2023-08-17T00:57:50;0.30;;;0.30;;
19213;SDS011;9741;51.020;5.304;2023-08-17T01:00:24;0.60;;;0.60;;
19213;SDS011;9741;51.020;5.304;2023-08-17T01:02:52;0.50;;;0.50;;
19213;SDS011;9741;51.020;5.304;2023-08-17T01:05:20;1.38;;;0.90;;
19213;SDS011;9741;51.020;5.304;2023-08-17T01:07:47;0.95;;;0.50;;
19213;SDS011;9741;51.020;5.304;2023-08-17T01:10:15;1.20;;;0.90;;
19213;SDS011;9741;51.020;5.304;2023-08-17T01:12:44;0.98;;;0.90;;
19213;SDS011;9741;51.020;5.304;2023-08-17T01:15:21;2.05;;;1.05;;
19213;SDS011;9741;51.020;5.304;2023-08-17T01:17:56;0.65;;;0.52;;
19213;SDS011;9741;51.020;5.304;2023-08-17T01:20:30;0.47;;;0.47;;
19213;SDS011;9741;51.020;5.304;2023-08-17T01:23:05;1.23;;;0.80;;
19213;SDS011;9741;51.020;5.304;2023-08-17T01:25:33;0.70;;;0.70;;
19213;SDS011;9741;51.020;5.304;2023-08-17T01:28:15;0.35;;;0.35;;
19213;SDS011;9741;51.020;5.304;2023-08-17T01:30:44;0.52;;;0.52;;
19213;SDS011;9741;51.020;5.304;2023-08-17T01:33:23;0.65;;;0.65;;
19213;SDS011;9741;51.020;5.304;2023-08-17T01:36:01;0.88;;;0.70;;
19213;SDS011;9741;51.020;5.304;2023-08-17T01:38:36;0.88;;;0.75;;
19213;SDS011;9741;51.020;5.304;2023-08-17T01:41:09;0.43;;;0.43;;
19213;SDS011;9741;51.020;5.304;2023-08-17T01:43:41;1.42;;;0.98;;
19213;SDS011;9741;51.020;5.304;2023-08-17T01:46:12;0.77;;;0.70;;
19213;SDS011;9741;51.020;5.304;2023-08-17T01:48:40;1.00;;;0.63;;
19213;SDS011;9741;51.020;5.304;2023-08-17T01:51:09;0.40;;;0.40;;
19213;SDS011;9741;51.020;5.304;2023-08-17T01:53:41;1.20;;;0.85;;
19213;SDS011;9741;51.020;5.304;2023-08-17T01:56:08;1.30;;;1.00;;
19213;SDS011;9741;51.020;5.304;2023-08-17T01:58:40;0.60;;;0.60;;
19213;SDS011;9741;51.020;5.304;2023-08-17T02:01:10;0.50;;;0.50;;
19213;SDS011;9741;51.020;5.304;2023-08-17T02:03:38;0.82;;;0.77;;
19213;SDS011;9741;51.020;5.304;2023-08-17T02:06:06;0.65;;;0.60;;
19213;SDS011;9741;51.020;5.304;2023-08-17T02:08:33;0.77;;;0.70;;
19213;SDS011;9741;51.020;5.304;2023-08-17T02:11:05;0.45;;;0.45;;
19213;SDS011;9741;51.020;5.304;2023-08-17T02:13:35;0.55;;;0.43;;
19213;SDS011;9741;51.020;5.304;2023-08-17T02:16:03;0.70;;;0.70;;
19213;SDS011;9741;51.020;5.304;2023-08-17T02:18:31;0.50;;;0.50;;
19213;SDS011;9741;51.020;5.304;2023-08-17T02:21:02;1.27;;;0.82;;
19213;SDS011;9741;51.020;5.304;2023-08-17T02:23:36;0.45;;;0.45;;
19213;SDS011;9741;51.020;5.304;2023-08-17T02:26:05;0.63;;;0.63;;
19213;SDS011;9741;51.020;5.304;2023-08-17T02:28:33;0.75;;;0.75;;
19213;SDS011;9741;51.020;5.304;2023-08-17T02:31:01;0.90;;;0.70;;
19213;SDS011;9741;51.020;5.304;2023-08-17T02:33:29;0.73;;;0.55;;
19213;SDS011;9741;51.020;5.304;2023-08-17T02:35:58;1.55;;;1.00;;
19213;SDS011;9741;51.020;5.304;2023-08-17T02:38:28;0.40;;;0.40;;
19213;SDS011;9741;51.020;5.304;2023-08-17T02:40:56;0.65;;;0.63;;
19213;SDS011;9741;51.020;5.304;2023-08-17T02:43:25;0.75;;;0.75;;
19213;SDS011;9741;51.020;5.304;2023-08-17T02:45:54;0.68;;;0.65;;
19213;SDS011;9741;51.020;5.304;2023-08-17T02:48:22;1.00;;;0.90;;
19213;SDS011;9741;51.020;5.304;2023-08-17T02:50:50;0.63;;;0.50;;
19213;SDS011;9741;51.020;5.304;2023-08-17T02:53:17;1.38;;;0.90;;
19213;SDS011;9741;51.020;5.304;2023-08-17T02:55:45;0.45;;;0.40;;
19213;SDS011;9741;51.020;5.304;2023-08-17T02:58:13;0.65;;;0.65;;
19213;SDS011;9741;51.020;5.304;2023-08-17T03:00:42;1.30;;;0.85;;
19213;SDS011;9741;51.020;5.304;2023-08-17T03:03:10;0.77;;;0.77;;
19213;SDS011;9741;51.020;5.304;2023-08-17T03:05:38;0.90;;;0.90;;
19213;SDS011;9741;51.020;5.304;2023-08-17T03:08:08;0.40;;;0.40;;
19213;SDS011;9741;51.020;5.304;2023-08-17T03:10:38;0.43;;;0.43;;
19213;SDS011;9741;51.020;5.304;2023-08-17T03:13:07;1.52;;;1.02;;
19213;SDS011;9741;51.020;5.304;2023-08-17T03:15:35;0.52;;;0.52;;
19213;SDS011;9741;51.020;5.304;2023-08-17T03:18:06;0.63;;;0.63;;
19213;SDS011;9741;51.020;5.304;2023-08-17T03:20:36;1.58;;;1.00;;
19213;SDS011;9741;51.020;5.304;2023-08-17T03:23:04;0.40;;;0.40;;
19213;SDS011;9741;51.020;5.304;2023-08-17T03:25:33;1.98;;;1.02;;
19213;SDS011;9741;51.020;5.304;2023-08-17T03:28:03;1.13;;;0.75;;
19213;SDS011;9741;51.020;5.304;2023-08-17T03:30:31;0.73;;;0.60;;
19213;SDS011;9741;51.020;5.304;2023-08-17T03:33:01;0.75;;;0.60;;
19213;SDS011;9741;51.020;5.304;2023-08-17T03:35:32;0.50;;;0.50;;
19213;SDS011;9741;51.020;5.304;2023-08-17T03:37:59;3.03;;;0.70;;
19213;SDS011;9741;51.020;5.304;2023-08-17T03:40:27;1.38;;;0.73;;
19213;SDS011;9741;51.020;5.304;2023-08-17T03:42:57;0.95;;;0.88;;
19213;SDS011;9741;51.020;5.304;2023-08-17T03:45:24;0.50;;;0.30;;
19213;SDS011;9741;51.020;5.304;2023-08-17T03:47:52;0.45;;;0.45;;
19213;SDS011;9741;51.020;5.304;2023-08-17T03:50:20;0.77;;;0.70;;
19213;SDS011;9741;51.020;5.304;2023-08-17T03:52:49;0.88;;;0.80;;
19213;SDS011;9741;51.020;5.304;2023-08-17T03:55:19;0.70;;;0.60;;
19213;SDS011;9741;51.020;5.304;2023-08-17T03:57:47;0.50;;;0.50;;
19213;SDS011;9741;51.020;5.304;2023-08-17T04:00:15;0.52;;;0.52;;
19213;SDS011;9741;51.020;5.304;2023-08-17T04:02:43;0.63;;;0.63;;
19213;SDS011;9741;51.020;5.304;2023-08-17T04:05:11;0.43;;;0.40;;
19213;SDS011;9741;51.020;5.304;2023-08-17T04:07:39;2.55;;;1.15;;
19213;SDS011;9741;51.020;5.304;2023-08-17T04:10:08;2.92;;;1.13;;
19213;SDS011;9741;51.020;5.304;2023-08-17T04:12:42;3.17;;;0.77;;
19213;SDS011;9741;51.020;5.304;2023-08-17T04:15:11;14.73;;;0.88;;
19213;SDS011;9741;51.020;5.304;2023-08-17T04:17:38;2.72;;;0.60;;
19213;SDS011;9741;51.020;5.304;2023-08-17T04:20:14;0.80;;;0.80;;
19213;SDS011;9741;51.020;5.304;2023-08-17T04:22:46;1.42;;;0.70;;
19213;SDS011;9741;51.020;5.304;2023-08-17T04:25:16;0.60;;;0.60;;
19213;SDS011;9741;51.020;5.304;2023-08-17T04:27:44;0.75;;;0.68;;
19213;SDS011;9741;51.020;5.304;2023-08-17T04:30:13;1.05;;;0.95;;
19213;SDS011;9741;51.020;5.304;2023-08-17T04:32:41;2.15;;;0.75;;
19213;SDS011;9741;51.020;5.304;2023-08-17T04:35:09;0.80;;;0.75;;
19213;SDS011;9741;51.020;5.304;2023-08-17T04:37:37;0.57;;;0.52;;
19213;SDS011;9741;51.020;5.304;2023-08-17T04:40:07;0.63;;;0.63;;
19213;SDS011;9741;51.020;5.304;2023-08-17T04:42:37;0.75;;;0.75;;
19213;SDS011;9741;51.020;5.304;2023-08-17T04:45:05;0.70;;;0.70;;
19213;SDS011;9741;51.020;5.304;2023-08-17T04:47:34;0.30;;;0.30;;
19213;SDS011;9741;51.020;5.304;2023-08-17T04:50:01;0.82;;;0.70;;
19213;SDS011;9741;51.020;5.304;2023-08-17T04:52:29;0.70;;;0.70;;
19213;SDS011;9741;51.020;5.304;2023-08-17T04:54:57;1.38;;;0.90;;
19213;SDS011;9741;51.020;5.304;2023-08-17T04:57:25;1.55;;;1.10;;
19213;SDS011;9741;51.020;5.304;2023-08-17T04:59:57;0.82;;;0.57;;
19213;SDS011;9741;51.020;5.304;2023-08-17T05:02:25;0.55;;;0.55;;
19213;SDS011;9741;51.020;5.304;2023-08-17T05:04:55;0.80;;;0.77;;
19213;SDS011;9741;51.020;5.304;2023-08-17T05:07:23;0.70;;;0.60;;
19213;SDS011;9741;51.020;5.304;2023-08-17T05:09:51;1.13;;;1.00;;
19213;SDS011;9741;51.020;5.304;2023-08-17T05:12:18;1.58;;;0.68;;
19213;SDS011;9741;51.020;5.304;2023-08-17T05:14:46;1.23;;;1.00;;
19213;SDS011;9741;51.020;5.304;2023-08-17T05:17:16;0.77;;;0.75;;
19213;SDS011;9741;51.020;5.304;2023-08-17T05:19:43;0.90;;;0.90;;
19213;SDS011;9741;51.020;5.304;2023-08-17T05:22:16;0.73;;;0.60;;
19213;SDS011;9741;51.020;5.304;2023-08-17T05:24:47;0.52;;;0.45;;
19213;SDS011;9741;51.020;5.304;2023-08-17T05:27:15;1.02;;;0.90;;
19213;SDS011;9741;51.020;5.304;2023-08-17T05:29:43;1.63;;;1.02;;
19213;SDS011;9741;51.020;5.304;2023-08-17T05:32:14;0.90;;;0.73;;
19213;SDS011;9741;51.020;5.304;2023-08-17T05:34:43;1.67;;;0.90;;
19213;SDS011;9741;51.020;5.304;2023-08-17T05:37:10;0.98;;;0.88;;
19213;SDS011;9741;51.020;5.304;2023-08-17T05:39:40;1.33;;;0.93;;
19213;SDS011;9741;51.020;5.304;2023-08-17T05:42:08;0.52;;;0.50;;
19213;SDS011;9741;51.020;5.304;2023-08-17T05:44:36;7.82;;;0.80;;
19213;SDS011;9741;51.020;5.304;2023-08-17T05:47:04;0.88;;;0.88;;
19213;SDS011;9741;51.020;5.304;2023-08-17T05:49:32;1.48;;;0.88;;
19213;SDS011;9741;51.020;5.304;2023-08-17T05:52:02;1.52;;;0.80;;
19213;SDS011;9741;51.020;5.304;2023-08-17T05:54:32;2.17;;;1.08;;
19213;SDS011;9741;51.020;5.304;2023-08-17T05:57:01;1.40;;;0.73;;
19213;SDS011;9741;51.020;5.304;2023-08-17T05:59:29;2.25;;;1.05;;
19213;SDS011;9741;51.020;5.304;2023-08-17T06:01:57;1.42;;;1.30;;
19213;SDS011;9741;51.020;5.304;2023-08-17T06:04:25;0.52;;;0.52;;
19213;SDS011;9741;51.020;5.304;2023-08-17T06:06:53;1.98;;;1.42;;
19213;SDS011;9741;51.020;5.304;2023-08-17T06:09:22;0.68;;;0.68;;
19213;SDS011;9741;51.020;5.304;2023-08-17T06:11:53;0.82;;;0.75;;
19213;SDS011;9741;51.020;5.304;2023-08-17T06:14:21;0.80;;;0.70;;
19213;SDS011;9741;51.020;5.304;2023-08-17T06:16:51;1.25;;;1.15;;
19213;SDS011;9741;51.020;5.304;2023-08-17T06:19:19;3.80;;;1.00;;
19213;SDS011;9741;51.020;5.304;2023-08-17T06:21:47;0.50;;;0.50;;
19213;SDS011;9741;51.020;5.304;2023-08-17T06:24:15;1.38;;;0.85;;
19213;SDS011;9741;51.020;5.304;2023-08-17T06:26:44;1.42;;;1.30;;
19213;SDS011;9741;51.020;5.304;2023-08-17T06:29:11;1.27;;;1.13;;
19213;SDS011;9741;51.020;5.304;2023-08-17T06:31:40;0.77;;;0.77;;
19213;SDS011;9741;51.020;5.304;2023-08-17T06:34:08;0.70;;;0.65;;
19213;SDS011;9741;51.020;5.304;2023-08-17T06:36:37;1.25;;;1.13;;
19213;SDS011;9741;51.020;5.304;2023-08-17T06:39:06;1.73;;;1.17;;
19213;SDS011;9741;51.020;5.304;2023-08-17T06:41:34;0.95;;;0.95;;
19213;SDS011;9741;51.020;5.304;2023-08-17T06:44:17;1.90;;;1.23;;
19213;SDS011;9741;51.020;5.304;2023-08-17T06:46:49;0.80;;;0.80;;
19213;SDS011;9741;51.020;5.304;2023-08-17T06:49:17;0.80;;;0.80;;
19213;SDS011;9741;51.020;5.304;2023-08-17T06:51:45;1.65;;;1.00;;
19213;SDS011;9741;51.020;5.304;2023-08-17T06:54:15;5.78;;;1.00;;
19213;SDS011;9741;51.020;5.304;2023-08-17T06:56:43;1.92;;;1.38;;
19213;SDS011;9741;51.020;5.304;2023-08-17T06:59:12;5.30;;;1.63;;
19213;SDS011;9741;51.020;5.304;2023-08-17T07:01:42;1.50;;;1.13;;
19213;SDS011;9741;51.020;5.304;2023-08-17T07:04:10;1.05;;;0.98;;
19213;SDS011;9741;51.020;5.304;2023-08-17T07:06:42;3.85;;;1.30;;
19213;SDS011;9741;51.020;5.304;2023-08-17T07:09:23;6.03;;;1.73;;
19213;SDS011;9741;51.020;5.304;2023-08-17T07:11:59;1.65;;;1.48;;
19213;SDS011;9741;51.020;5.304;2023-08-17T07:14:30;1.17;;;1.10;;
19213;SDS011;9741;51.020;5.304;2023-08-17T07:16:59;1.92;;;1.83;;
19213;SDS011;9741;51.020;5.304;2023-08-17T07:19:27;1.73;;;1.10;;
19213;SDS011;9741;51.020;5.304;2023-08-17T07:21:55;8.52;;;2.65;;
19213;SDS011;9741;51.020;5.304;2023-08-17T07:24:23;2.70;;;1.73;;
19213;SDS011;9741;51.020;5.304;2023-08-17T07:26:53;3.10;;;1.90;;
19213;SDS011;9741;51.020;5.304;2023-08-17T07:29:21;1.85;;;1.63;;
19213;SDS011;9741;51.020;5.304;2023-08-17T07:31:49;4.55;;;1.58;;
19213;SDS011;9741;51.020;5.304;2023-08-17T07:34:19;5.63;;;1.25;;
19213;SDS011;9741;51.020;5.304;2023-08-17T07:36:47;5.97;;;1.63;;
19213;SDS011;9741;51.020;5.304;2023-08-17T07:39:14;2.88;;;1.83;;
19213;SDS011;9741;51.020;5.304;2023-08-17T07:41:43;4.38;;;1.88;;
19213;SDS011;9741;51.020;5.304;2023-08-17T07:44:12;3.00;;;1.95;;
19213;SDS011;9741;51.020;5.304;2023-08-17T07:46:40;3.92;;;1.73;;
19213;SDS011;9741;51.020;5.304;2023-08-17T07:49:11;1.77;;;1.55;;
19213;SDS011;9741;51.020;5.304;2023-08-17T07:51:41;5.38;;;2.45;;
19213;SDS011;9741;51.020;5.304;2023-08-17T07:54:10;2.20;;;1.80;;
19213;SDS011;9741;51.020;5.304;2023-08-17T07:56:38;2.00;;;1.50;;
19213;SDS011;9741;51.020;5.304;2023-08-17T07:59:05;4.20;;;2.90;;
19213;SDS011;9741;51.020;5.304;2023-08-17T08:01:34;8.82;;;2.60;;
19213;SDS011;9741;51.020;5.304;2023-08-17T08:04:02;4.97;;;2.28;;
19213;SDS011;9741;51.020;5.304;2023-08-17T08:06:32;4.70;;;2.45;;
19213;SDS011;9741;51.020;5.304;2023-08-17T08:09:00;2.95;;;2.50;;
19213;SDS011;9741;51.020;5.304;2023-08-17T08:11:30;8.18;;;3.00;;
19213;SDS011;9741;51.020;5.304;2023-08-17T08:13:58;4.30;;;2.40;;
19213;SDS011;9741;51.020;5.304;2023-08-17T08:16:25;2.97;;;2.53;;
19213;SDS011;9741;51.020;5.304;2023-08-17T08:18:53;5.07;;;2.53;;
19213;SDS011;9741;51.020;5.304;2023-08-17T08:21:21;4.05;;;2.95;;
19213;SDS011;9741;51.020;5.304;2023-08-17T08:23:50;2.28;;;2.08;;
19213;SDS011;9741;51.020;5.304;2023-08-17T08:26:18;7.60;;;2.17;;
19213;SDS011;9741;51.020;5.304;2023-08-17T08:28:47;6.43;;;2.45;;
19213;SDS011;9741;51.020;5.304;2023-08-17T08:31:16;6.70;;;2.40;;
19213;SDS011;9741;51.020;5.304;2023-08-17T08:33:47;6.05;;;3.25;;
19213;SDS011;9741;51.020;5.304;2023-08-17T08:36:16;4.03;;;2.55;;
19213;SDS011;9741;51.020;5.304;2023-08-17T08:39:01;2.65;;;2.05;;
19213;SDS011;9741;51.020;5.304;2023-08-17T08:41:31;4.22;;;2.30;;
19213;SDS011;9741;51.020;5.304;2023-08-17T08:44:03;1.90;;;1.77;;
19213;SDS011;9741;51.020;5.304;2023-08-17T08:46:32;5.65;;;2.38;;
19213;SDS011;9741;51.020;5.304;2023-08-17T08:49:04;3.78;;;2.60;;
19213;SDS011;9741;51.020;5.304;2023-08-17T08:51:35;3.33;;;2.28;;
19213;SDS011;9741;51.020;5.304;2023-08-17T08:54:11;3.50;;;2.22;;
19213;SDS011;9741;51.020;5.304;2023-08-17T08:56:42;7.00;;;2.83;;
19213;SDS011;9741;51.020;5.304;2023-08-17T08:59:11;4.53;;;3.03;;
19213;SDS011;9741;51.020;5.304;2023-08-17T09:01:39;5.38;;;3.58;;
19213;SDS011;9741;51.020;5.304;2023-08-17T09:04:10;3.35;;;2.75;;
19213;SDS011;9741;51.020;5.304;2023-08-17T09:06:37;4.93;;;3.70;;
19213;SDS011;9741;51.020;5.304;2023-08-17T09:09:10;4.13;;;2.78;;
19213;SDS011;9741;51.020;5.304;2023-08-17T09:11:38;2.75;;;2.45;;
19213;SDS011;9741;51.020;5.304;2023-08-17T09:14:06;3.53;;;3.22;;
19213;SDS011;9741;51.020;5.304;2023-08-17T09:16:35;4.45;;;3.65;;
19213;SDS011;9741;51.020;5.304;2023-08-17T09:19:03;3.05;;;2.75;;
19213;SDS011;9741;51.020;5.304;2023-08-17T09:21:31;8.10;;;4.22;;
19213;SDS011;9741;51.020;5.304;2023-08-17T09:24:00;5.15;;;3.25;;
19213;SDS011;9741;51.020;5.304;2023-08-17T09:26:32;4.07;;;3.05;;
19213;SDS011;9741;51.020;5.304;2023-08-17T09:29:01;3.85;;;3.22;;
19213;SDS011;9741;51.020;5.304;2023-08-17T09:31:45;5.43;;;3.63;;
19213;SDS011;9741;51.020;5.304;2023-08-17T09:34:14;3.67;;;2.83;;
19213;SDS011;9741;51.020;5.304;2023-08-17T09:36:42;8.48;;;3.45;;
19213;SDS011;9741;51.020;5.304;2023-08-17T09:39:11;3.25;;;2.55;;
19213;SDS011;9741;51.020;5.304;2023-08-17T09:41:41;5.18;;;3.53;;
19213;SDS011;9741;51.020;5.304;2023-08-17T09:44:09;6.10;;;3.70;;
19213;SDS011;9741;51.020;5.304;2023-08-17T09:46:39;4.25;;;2.65;;
19213;SDS011;9741;51.020;5.304;2023-08-17T09:49:10;4.75;;;3.85;;
19213;SDS011;9741;51.020;5.304;2023-08-17T09:51:39;13.27;;;4.68;;
19213;SDS011;9741;51.020;5.304;2023-08-17T09:54:16;6.80;;;3.13;;
19213;SDS011;9741;51.020;5.304;2023-08-17T09:56:50;7.13;;;4.32;;
19213;SDS011;9741;51.020;5.304;2023-08-17T09:59:20;4.35;;;3.70;;
19213;SDS011;9741;51.020;5.304;2023-08-17T10:01:49;5.95;;;3.10;;
19213;SDS011;9741;51.020;5.304;2023-08-17T10:04:19;7.18;;;3.45;;
19213;SDS011;9741;51.020;5.304;2023-08-17T10:06:51;5.00;;;3.58;;
19213;SDS011;9741;51.020;5.304;2023-08-17T10:09:24;4.22;;;3.08;;
19213;SDS011;9741;51.020;5.304;2023-08-17T10:12:00;2.97;;;2.47;;
19213;SDS011;9741;51.020;5.304;2023-08-17T10:14:36;5.88;;;3.13;;
19213;SDS011;9741;51.020;5.304;2023-08-17T10:17:11;5.13;;;3.13;;
19213;SDS011;9741;51.020;5.304;2023-08-17T10:19:46;5.93;;;3.10;;
19213;SDS011;9741;51.020;5.304;2023-08-17T10:22:18;5.05;;;2.92;;
19213;SDS011;9741;51.020;5.304;2023-08-17T10:24:55;5.05;;;2.85;;
19213;SDS011;9741;51.020;5.304;2023-08-17T10:27:26;6.57;;;3.28;;
19213;SDS011;9741;51.020;5.304;2023-08-17T10:29:54;3.83;;;3.00;;
19213;SDS011;9741;51.020;5.304;2023-08-17T10:32:22;4.85;;;3.72;;
19213;SDS011;9741;51.020;5.304;2023-08-17T10:34:51;3.92;;;2.90;;
19213;SDS011;9741;51.020;5.304;2023-08-17T10:37:19;5.75;;;3.58;;
19213;SDS011;9741;51.020;5.304;2023-08-17T10:39:49;5.32;;;3.25;;
19213;SDS011;9741;51.020;5.304;2023-08-17T10:42:31;3.95;;;2.78;;
19213;SDS011;9741;51.020;5.304;2023-08-17T10:45:00;4.38;;;3.08;;
19213;SDS011;9741;51.020;5.304;2023-08-17T10:47:49;5.20;;;3.15;;
19213;SDS011;9741;51.020;5.304;2023-08-17T10:50:26;4.57;;;2.80;;
19213;SDS011;9741;51.020;5.304;2023-08-17T10:52:54;6.78;;;3.90;;
19213;SDS011;9741;51.020;5.304;2023-08-17T10:55:35;5.45;;;3.10;;
19213;SDS011;9741;51.020;5.304;2023-08-17T10:58:07;7.47;;;3.58;;
19213;SDS011;9741;51.020;5.304;2023-08-17T11:00:38;4.80;;;3.17;;
19213;SDS011;9741;51.020;5.304;2023-08-17T11:03:07;6.40;;;3.83;;
19213;SDS011;9741;51.020;5.304;2023-08-17T11:05:40;5.00;;;2.97;;
19213;SDS011;9741;51.020;5.304;2023-08-17T11:08:27;5.88;;;3.55;;
19213;SDS011;9741;51.020;5.304;2023-08-17T11:10:57;4.55;;;2.97;;
19213;SDS011;9741;51.020;5.304;2023-08-17T11:13:32;9.05;;;3.35;;
19213;SDS011;9741;51.020;5.304;2023-08-17T11:16:03;4.43;;;3.80;;
19213;SDS011;9741;51.020;5.304;2023-08-17T11:18:31;8.45;;;3.20;;
19213;SDS011;9741;51.020;5.304;2023-08-17T11:21:00;5.55;;;2.70;;
19213;SDS011;9741;51.020;5.304;2023-08-17T11:23:28;7.18;;;4.07;;
19213;SDS011;9741;51.020;5.304;2023-08-17T11:25:58;5.95;;;3.20;;
19213;SDS011;9741;51.020;5.304;2023-08-17T11:28:29;3.38;;;2.30;;
19213;SDS011;9741;51.020;5.304;2023-08-17T11:31:05;3.47;;;2.20;;
19213;SDS011;9741;51.020;5.304;2023-08-17T11:33:37;3.38;;;2.67;;
19213;SDS011;9741;51.020;5.304;2023-08-17T11:36:08;4.05;;;2.78;;
19213;SDS011;9741;51.020;5.304;2023-08-17T11:38:38;5.65;;;3.25;;
19213;SDS011;9741;51.020;5.304;2023-08-17T11:41:06;11.07;;;3.00;;
19213;SDS011;9741;51.020;5.304;2023-08-17T11:43:34;5.00;;;2.67;;
19213;SDS011;9741;51.020;5.304;2023-08-17T11:46:04;6.03;;;3.45;;
19213;SDS011;9741;51.020;5.304;2023-08-17T11:48:32;4.40;;;3.55;;
19213;SDS011;9741;51.020;5.304;2023-08-17T11:51:00;3.65;;;2.45;;
19213;SDS011;9741;51.020;5.304;2023-08-17T11:53:33;4.13;;;2.90;;
19213;SDS011;9741;51.020;5.304;2023-08-17T11:56:04;4.20;;;3.28;;
19213;SDS011;9741;51.020;5.304;2023-08-17T11:58:43;6.30;;;3.33;;
19213;SDS011;9741;51.020;5.304;2023-08-17T12:01:18;5.63;;;3.28;;
19213;SDS011;9741;51.020;5.304;2023-08-17T12:03:47;4.43;;;2.85;;
19213;SDS011;9741;51.020;5.304;2023-08-17T12:06:15;6.53;;;2.83;;
19213;SDS011;9741;51.020;5.304;2023-08-17T12:08:46;3.20;;;2.13;;
19213;SDS011;9741;51.020;5.304;2023-08-17T12:11:15;4.00;;;2.53;;
19213;SDS011;9741;51.020;5.304;2023-08-17T12:13:48;4.00;;;2.50;;
19213;SDS011;9741;51.020;5.304;2023-08-17T12:16:19;6.20;;;3.08;;
19213;SDS011;9741;51.020;5.304;2023-08-17T12:18:47;5.47;;;2.75;;
19213;SDS011;9741;51.020;5.304;2023-08-17T12:21:15;4.95;;;3.30;;
19213;SDS011;9741;51.020;5.304;2023-08-17T12:23:43;6.20;;;3.00;;
19213;SDS011;9741;51.020;5.304;2023-08-17T12:26:17;7.00;;;3.28;;
19213;SDS011;9741;51.020;5.304;2023-08-17T12:28:45;2.35;;;2.15;;
19213;SDS011;9741;51.020;5.304;2023-08-17T12:31:20;3.65;;;2.83;;
19213;SDS011;9741;51.020;5.304;2023-08-17T12:33:54;5.05;;;2.85;;
19213;SDS011;9741;51.020;5.304;2023-08-17T12:36:22;6.28;;;3.47;;
19213;SDS011;9741;51.020;5.304;2023-08-17T12:38:49;4.57;;;3.60;;
19213;SDS011;9741;51.020;5.304;2023-08-17T12:41:17;3.05;;;2.70;;
19213;SDS011;9741;51.020;5.304;2023-08-17T12:43:45;3.67;;;2.92;;
19213;SDS011;9741;51.020;5.304;2023-08-17T12:46:13;3.05;;;2.45;;
19213;SDS011;9741;51.020;5.304;2023-08-17T12:48:43;4.88;;;3.30;;
19213;SDS011;9741;51.020;5.304;2023-08-17T12:51:12;10.15;;;3.42;;
19213;SDS011;9741;51.020;5.304;2023-08-17T12:56:08;5.28;;;2.50;;
19213;SDS011;9741;51.020;5.304;2023-08-17T12:58:35;3.40;;;2.42;;
19213;SDS011;9741;51.020;5.304;2023-08-17T13:01:05;3.30;;;2.92;;
19213;SDS011;9741;51.020;5.304;2023-08-17T13:03:33;2.67;;;1.92;;
19213;SDS011;9741;51.020;5.304;2023-08-17T13:06:05;6.30;;;2.78;;
19213;SDS011;9741;51.020;5.304;2023-08-17T13:08:34;3.20;;;2.78;;
19213;SDS011;9741;51.020;5.304;2023-08-17T13:11:02;2.80;;;2.38;;
19213;SDS011;9741;51.020;5.304;2023-08-17T13:13:30;6.88;;;2.70;;
19213;SDS011;9741;51.020;5.304;2023-08-17T13:15:58;3.60;;;2.95;;
19213;SDS011;9741;51.020;5.304;2023-08-17T13:18:26;6.57;;;3.22;;
19213;SDS011;9741;51.020;5.304;2023-08-17T13:20:55;5.00;;;2.58;;
19213;SDS011;9741;51.020;5.304;2023-08-17T13:23:32;5.38;;;2.53;;
19213;SDS011;9741;51.020;5.304;2023-08-17T13:26:02;3.03;;;2.45;;
19213;SDS011;9741;51.020;5.304;2023-08-17T13:28:30;5.00;;;2.88;;
19213;SDS011;9741;51.020;5.304;2023-08-17T13:30:59;3.33;;;2.60;;
19213;SDS011;9741;51.020;5.304;2023-08-17T13:33:27;6.07;;;3.00;;
19213;SDS011;9741;51.020;5.304;2023-08-17T13:35:54;4.63;;;2.90;;
19213;SDS011;9741;51.020;5.304;2023-08-17T13:38:25;11.40;;;3.47;;
19213;SDS011;9741;51.020;5.304;2023-08-17T13:40:57;5.28;;;2.80;;
19213;SDS011;9741;51.020;5.304;2023-08-17T13:43:27;2.92;;;2.58;;
19213;SDS011;9741;51.020;5.304;2023-08-17T13:45:57;9.85;;;3.35;;
19213;SDS011;9741;51.020;5.304;2023-08-17T13:48:25;7.18;;;3.38;;
19213;SDS011;9741;51.020;5.304;2023-08-17T13:50:53;3.42;;;2.88;;
19213;SDS011;9741;51.020;5.304;2023-08-17T13:53:22;3.45;;;2.17;;
19213;SDS011;9741;51.020;5.304;2023-08-17T13:55:49;7.80;;;3.17;;
19213;SDS011;9741;51.020;5.304;2023-08-17T13:58:21;3.83;;;2.92;;
19213;SDS011;9741;51.020;5.304;2023-08-17T14:00:48;3.90;;;2.63;;
19213;SDS011;9741;51.020;5.304;2023-08-17T14:03:16;7.93;;;3.20;;
19213;SDS011;9741;51.020;5.304;2023-08-17T14:05:47;4.95;;;2.72;;
19213;SDS011;9741;51.020;5.304;2023-08-17T14:08:24;7.82;;;3.97;;
19213;SDS011;9741;51.020;5.304;2023-08-17T14:10:52;3.95;;;3.35;;
19213;SDS011;9741;51.020;5.304;2023-08-17T14:13:24;3.58;;;2.67;;
19213;SDS011;9741;51.020;5.304;2023-08-17T14:15:53;6.13;;;3.58;;
19213;SDS011;9741;51.020;5.304;2023-08-17T14:18:23;4.05;;;2.83;;
19213;SDS011;9741;51.020;5.304;2023-08-17T14:20:52;7.93;;;3.83;;
19213;SDS011;9741;51.020;5.304;2023-08-17T14:23:21;10.65;;;4.20;;
19213;SDS011;9741;51.020;5.304;2023-08-17T14:25:51;5.97;;;3.55;;
19213;SDS011;9741;51.020;5.304;2023-08-17T14:28:19;9.93;;;4.93;;
19213;SDS011;9741;51.020;5.304;2023-08-17T14:30:48;9.25;;;4.97;;
19213;SDS011;9741;51.020;5.304;2023-08-17T14:33:19;8.90;;;4.65;;
19213;SDS011;9741;51.020;5.304;2023-08-17T14:35:46;7.50;;;4.95;;
19213;SDS011;9741;51.020;5.304;2023-08-17T14:38:14;6.90;;;5.05;;
19213;SDS011;9741;51.020;5.304;2023-08-17T14:40:42;13.57;;;4.15;;
19213;SDS011;9741;51.020;5.304;2023-08-17T14:43:12;7.13;;;3.88;;
19213;SDS011;9741;51.020;5.304;2023-08-17T14:45:42;5.88;;;4.05;;
19213;SDS011;9741;51.020;5.304;2023-08-17T14:48:14;6.88;;;4.00;;
19213;SDS011;9741;51.020;5.304;2023-08-17T14:50:45;6.30;;;4.28;;
19213;SDS011;9741;51.020;5.304;2023-08-17T14:53:13;3.55;;;2.88;;
19213;SDS011;9741;51.020;5.304;2023-08-17T14:55:41;10.45;;;4.25;;
19213;SDS011;9741;51.020;5.304;2023-08-17T14:58:09;5.22;;;3.67;;
19213;SDS011;9741;51.020;5.304;2023-08-17T15:00:41;5.13;;;2.92;;
19213;SDS011;9741;51.020;5.304;2023-08-17T15:03:09;6.80;;;3.78;;
19213;SDS011;9741;51.020;5.304;2023-08-17T15:05:38;13.52;;;2.88;;
19213;SDS011;9741;51.020;5.304;2023-08-17T15:08:05;3.67;;;2.97;;
19213;SDS011;9741;51.020;5.304;2023-08-17T15:10:33;3.88;;;3.30;;
19213;SDS011;9741;51.020;5.304;2023-08-17T15:13:01;7.53;;;3.53;;
19213;SDS011;9741;51.020;5.304;2023-08-17T15:15:32;3.50;;;2.72;;
19213;SDS011;9741;51.020;5.304;2023-08-17T15:18:00;8.93;;;3.63;;
19213;SDS011;9741;51.020;5.304;2023-08-17T15:20:28;12.95;;;4.43;;